Terminal Aerodrome Forecast
Issued by NWS

Current Version | Previous Version | Text Only | Print | Product List | Glossary Off
Versions: 1 2 3 4 5 6 7 8 9 10 11 12 13 14 15 16 17 18 19 20 21 22

000
FTUS44 KSJT 301500 AAB
TAFJCT
TAF AMD
KJCT 301535Z 3016/3112 21008KT P6SM SCT040
     FM302100 25009KT P6SM BKN040
     FM310000 VRB06KT P6SM BKN040
     FM310600 36008KT P6SM OVC050=

USA.gov is the U.S. government's official web portal to all federal, state and local government web resources and services.